Главная страница
METAR-TAF:

METAR-TAF

Аэропорты :

Саратов, Россия

Саратов-Центральный

широта: 51-34-12N, долгота: 046-04-12E, высота над уровнем моря: 166 м

Текущие метеонаблюдения

Эта сводка был подготовлена 50 минут назад, в 11:30 UTC
Ветер 16 Узел от юго-восточный
Температура -4°C
Влажность 93%
Давление 1025 hPa
Видимость: 5000 м
Сплошная облачность на высоте 600 фута
небольшой снег, дымка

METAR: UWSS 151130Z 14008MPS 5000 -SN BR OVC006 M04/M05 Q1025 R12/420350 TEMPO 2100 -SN BR OVC005 RMK QFE757

Время: 15:20 (12:20 UTC)

Прогноз

Эта сводка был подготовлена 1 час и 20 минут назад, в 11:00 UTC
Прогноз действительный с 15-го 12 UTC до 15-го 21 UTC
Ветер 16 Узел от юго-юго-восточный
Видимость: 1000 м
Сплошная облачность на высоте 400 фута
снег, дымка
временами
С 15-го 12 UTC до 15-го 21 UTC
Ветер 23 Узел от юго-юго-восточный
Видимость: 0400 м
Сплошная облачность на высоте 300 фута
переохлажденный туман

TAF: UWSS 151100Z 1512/1521 15008MPS 1000 SN BR OVC004 TEMPO 1512/1521 16012MPS 0400 FZFG OVC003

Метеонаблюдения и прогнозы для более 4000 аэропортов (сводки METAR и TAF).

Имеющиеся станции представлены на карте желтыми и красными точками.

Чтобы увидеть название станции, наведите на нее мышь.

Затем щелкните, чтобы увидеть метеонаблюдения и метеопрогнозы.

Управление картой: чтобы увеличить масштаб, щелкните зеленые кнопки с черным крестиком; чтобы уменьшить масштаб, щелкните зеленую кнопку с тире; для просмотра соседних карт щелкайте зеленые стрелки.


METAR-TAF: